Nearby METAR Reports

 

KMTN - Baltimore/Martin, Maryland, USA
Distance from station: SSE 8mi, 13km
Updated: Wed, 23-Apr-2014 5:12am EDT
Clear
Clear
 Wind from W
Wind: W 14 mph , 22 km/h, Gust: 21 mph , 33 km/h
Temperature: 50°F , 10°C
Wind Chill: 45°F , 7°C
Dew Point: 36°F , 2°C
Humidity: 58%
Barometer: 29.71 inHg , 1006.1 hPa
Clouds: Clear
Visibility: 10 miles , 16 km
2014/04/23 09:12 KMTN 230912Z AUTO 27012G18KT 10SM CLR 10/02 A2971 RMK AO2
KDMH - Baltimore/Dwntwn, Maryland, USA
Distance from station: SW 12mi, 19km
Updated: Wed, 23-Apr-2014 4:54am EDT

 
Temperature: 52°F , 11°C
Dew Point: 34°F , 1°C
Humidity: 50%
Barometer: 29.71 inHg , 1006.1 hPa
2014/04/23 08:54 KDMH 230854Z AUTO 11/01 A2971 RMK AO1 SLP060 T01060011 53019
 
KBWI - Balto/Wash Intl, Maryland, USA
Distance from station: SSW 20mi, 33km
Updated: Wed, 23-Apr-2014 4:54am EDT
Partly cloudy
Partly cloudy
 Wind from W
Wind: W 10 mph , 17 km/h
Temperature: 48°F , 9°C
Wind Chill: 44°F , 7°C
Dew Point: 34°F , 1°C
Humidity: 58%
Barometer: 29.70 inHg , 1005.8 hPa
Clouds: Partly cloudy
Visibility: 10 miles , 16 km
Cloud details: Few Clouds 5000 ft
Partly cloudy 25000 ft
2014/04/23 08:54 KBWI 230854Z 28009KT 10SM FEW050 SCT250 09/01 A2970 RMK AO2 PK WND 31034/0756 SLP057 T00890011 53011
KDMW - Carroll Cnty, Maryland, USA
Distance from station: WNW 30mi, 48km
Updated: Wed, 23-Apr-2014 5:10am EDT
Clear
Clear
 Wind from WNW
Wind: WNW 14 mph , 22 km/h
Temperature: 46°F , 8°C
Wind Chill: 40°F , 4°C
Dew Point: 36°F , 2°C
Humidity: 66%
Barometer: 29.70 inHg , 1005.8 hPa
Clouds: Clear
Visibility: 10 miles , 16 km
2014/04/23 09:10 KDMW 230910Z AUTO 29012KT 10SM CLR 08/02 A2970 RMK AO2
 
KNAK - Annapolis/Naval, Maryland, USA
Distance from station: S 30mi, 48km
Updated: Wed, 23-Apr-2014 4:54am EDT
Clear
Clear
 Wind from NW
Wind: NW 12 mph , 19 km/h, Gust: 18 mph , 30 km/h
Temperature: 54°F , 12°C
Dew Point: 36°F , 2°C
Humidity: 51%
Barometer: 29.68 inHg , 1005.1 hPa
Clouds: Clear
Visibility: 10 miles , 16 km
2014/04/23 08:54 KNAK 230854Z AUTO 31010G16KT 10SM CLR 12/02 A2968 RMK AO2 SLP054 T01170017 51009
KW29 - Stevensville, Maryland, USA
Distance from station: SSE 31mi, 50km
Updated: Wed, 23-Apr-2014 5:12am EDT
Clear
Clear
 Wind from NW
Wind: NW 21 mph , 33 km/h, Gust: 29 mph , 46 km/h
Temperature: 52°F , 11°C
Dew Point: 34°F , 1°C
Humidity: 50%
Barometer: 29.69 inHg , 1005.4 hPa
Clouds: Clear
Visibility: 10 miles , 16 km
2014/04/23 09:12 KW29 230912Z AUTO 31018G25KT 10SM CLR 11/01 A2969 RMK AO1
 
KCGS - College Park, Maryland, USA
Distance from station: SW 38mi, 61km
Updated: Wed, 23-Apr-2014 5:10am EDT
Clear
Clear
 Wind from WNW
Wind: WNW 8 mph , 13 km/h
Temperature: 52°F , 11°C
Dew Point: 34°F , 1°C
Humidity: 50%
Barometer: 29.73 inHg , 1006.8 hPa
Clouds: Clear
Visibility: 10 miles , 16 km
2014/04/23 09:10 KCGS 230910Z AUTO 30007KT 10SM CLR 11/01 A2973 RMK AO1
KGAI - Gaithersburg, Maryland, USA
Distance from station: WSW 40mi, 65km
Updated: Wed, 23-Apr-2014 5:15am EDT
Clear
Clear
 Wind from WNW
Wind: WNW 14 mph , 22 km/h, Gust: 22 mph , 35 km/h
Temperature: 46°F , 8°C
Wind Chill: 40°F , 4°C
Dew Point: 32°F , 0°C
Humidity: 57%
Barometer: 29.74 inHg , 1007.1 hPa
Clouds: Clear
Visibility: 10 miles , 16 km
2014/04/23 09:15 KGAI 230915Z AUTO 29012G19KT 10SM CLR 08/00 A2974 RMK AO1
 
KTHV - York, Pennsylvania, USA
Distance from station: NNW 40mi, 65km
Updated: Wed, 23-Apr-2014 4:53am EDT
Mostly cloudy
Mostly cloudy
 Wind from WNW
Wind: WNW 7 mph , 11 km/h
Temperature: 46°F , 8°C
Wind Chill: 42°F , 6°C
Dew Point: 36°F , 2°C
Humidity: 66%
Barometer: 29.69 inHg , 1005.4 hPa
Clouds: Mostly cloudy
Visibility: 10 miles , 16 km
Cloud details: Mostly cloudy 4500 ft
2014/04/23 08:53 KTHV 230853Z AUTO 29006KT 10SM BKN045 08/02 A2969 RMK AO2 SLP055 T00780017 53000
KFDK - Frederick, Maryland, USA
Distance from station: W 47mi, 75km
Updated: Wed, 23-Apr-2014 5:10am EDT
Clear
Clear
 Wind from W
Wind: W 10 mph , 17 km/h, Gust: 17 mph , 28 km/h
Temperature: 45°F , 7°C
Wind Chill: 40°F , 4°C
Dew Point: 37°F , 3°C
Humidity: 76%
Barometer: 29.75 inHg , 1007.5 hPa
Clouds: Clear
Visibility: 10 miles , 16 km
2014/04/23 09:10 KFDK 230910Z AUTO 27009G15KT 10SM CLR 07/03 A2975 RMK AO2 LTG DSNT E
 
KESN - Easton/Newnam, Maryland, USA
Distance from station: SSE 48mi, 78km
Updated: Wed, 23-Apr-2014 5:23am EDT
Clear
Clear
 Wind from NNW
Wind: NNW 8 mph , 13 km/h, Gust: 17 mph , 28 km/h
Temperature: 52°F , 11°C
Dew Point: 37°F , 3°C
Humidity: 58%
Barometer: 29.72 inHg , 1006.4 hPa
Clouds: Clear
Visibility: 10 miles , 16 km
2014/04/23 09:23 KESN 230923Z AUTO 34007G15KT 10SM CLR 11/03 A2972 RMK AO2 T01120027
KDCA - Washington/Natl, Washington D.c., USA
Distance from station: SW 49mi, 79km
Updated: Wed, 23-Apr-2014 4:52am EDT
Clear
Clear
 Wind from NW
Wind: NW 15 mph , 24 km/h, Gust: 25 mph , 41 km/h
Temperature: 54°F , 12°C
Dew Point: 32°F , 0°C
Humidity: 44%
Barometer: 29.73 inHg , 1006.8 hPa
Clouds: Clear
Visibility: 10 miles , 16 km
2014/04/23 08:52 KDCA 230852Z 31013G22KT 10SM CLR 12/00 A2973 RMK AO2 PK WND 32030/0829 SLP067 T01220000 53015
 
KLNS - Lancaster, Pennsylvania, USA
Distance from station: N 49mi, 79km
Updated: Wed, 23-Apr-2014 4:53am EDT
Mostly cloudy
Mostly cloudy
 Wind from WNW
Wind: WNW 22 mph , 35 km/h, Gust: 29 mph , 46 km/h
Temperature: 46°F , 8°C
Wind Chill: 38°F , 3°C
Dew Point: 34°F , 1°C
Humidity: 62%
Barometer: 29.65 inHg , 1004.1 hPa
Clouds: Mostly cloudy
Visibility: 10 miles , 16 km
Cloud details: Mostly cloudy 4700 ft
2014/04/23 08:53 KLNS 230853Z 30019G25KT 10SM BKN047 08/01 A2965 RMK AO2 PK WND 30027/0832 SLP040 T00830011 58002
KILG - Wilmington, Delaware, USA
Distance from station: ENE 50mi, 81km
Updated: Wed, 23-Apr-2014 4:51am EDT
Clear
Clear
 Wind from WNW
Wind: WNW 16 mph , 26 km/h, Gust: 23 mph , 37 km/h
Temperature: 48°F , 9°C
Wind Chill: 42°F , 6°C
Dew Point: 34°F , 1°C
Humidity: 58%
Barometer: 29.65 inHg , 1004.1 hPa
Clouds: Clear
Visibility: 10 miles , 16 km
2014/04/23 08:51 KILG 230851Z 29014G20KT 10SM CLR 09/01 A2965 RMK AO2 SLP041 T00940006 53006